| time (UTC) | temp F | wind direction | speed knots | gust knots | rain 1hr in | rain 24hr in | rain mn in | humidity % | barometer mb |
| 20260505100525 | 59 | 208 | 0.9 | 2.6 | 0.00 | 0.00 | 0.00 | 56 | 1011.8 |
| 20260505095518 | 59 | 210 | 0.9 | 2.6 | 0.00 | 0.00 | 0.00 | 56 | 1011.7 |
| 20260505094523 | 60 | 214 | 0.9 | 1.7 | 0.00 | 0.00 | 0.00 | 56 | 1011.8 |
| 20260505093518 | 60 | 187 | 0.9 | 2.6 | 0.00 | 0.00 | 0.00 | 56 | 1011.7 |
| 20260505092518 | 60 | 153 | 0.9 | 1.7 | 0.00 | 0.00 | 0.00 | 56 | 1011.6 |
| 20260505091517 | 60 | 231 | 0.9 | 2.6 | 0.00 | 0.00 | 0.00 | 56 | 1011.6 |
| 20260505090526 | 60 | 226 | 1.7 | 1.7 | 0.00 | 0.00 | 0.00 | 56 | 1011.6 |
| 20260505085537 | 60 | 179 | 0.9 | 3.5 | 0.00 | 0.00 | 0.00 | 57 | 1011.6 |
| 20260505084524 | 60 | 185 | 1.7 | 2.6 | 0.00 | 0.00 | 0.00 | 57 | 1011.5 |
| 20260505083540 | 60 | 209 | 1.7 | 4.3 | 0.00 | 0.00 | 0.00 | 58 | 1011.6 |
| 20260505082518 | 60 | 198 | 0.9 | 3.5 | 0.00 | 0.00 | 0.00 | 58 | 1011.4 |
| 20260505081519 | 60 | 233 | 1.7 | 3.5 | 0.00 | 0.00 | 0.00 | 59 | 1011.5 |
| 20260505080516 | 60 | 220 | 1.7 | 7.0 | 0.00 | 0.00 | 0.00 | 60 | 1011.5 |
| 20260505075517 | 59 | 206 | 0.9 | 5.2 | 0.00 | 0.00 | 0.00 | 62 | 1011.5 |
| 20260505074526 | 58 | 187 | 0.9 | 3.5 | 0.00 | 0.00 | 0.00 | 62 | 1011.5 |
| 20260505073515 | 57 | 195 | 0.9 | 2.6 | 0.00 | 0.00 | 0.00 | 63 | 1011.6 |
| 20260505072522 | 57 | 188 | 0.0 | 2.6 | 0.00 | 0.00 | 0.00 | 64 | 1011.5 |
| 20260505071519 | 56 | 180 | 0.0 | 1.7 | 0.00 | 0.00 | 0.00 | 64 | 1011.6 |
| 20260505070520 | 56 | 212 | 0.0 | 1.7 | 0.00 | 0.00 | 0.00 | 64 | 1011.6 |
| 20260505065519 | 55 | 173 | 0.0 | 1.7 | 0.00 | 0.00 | 0.00 | 64 | 1011.5 |
| 20260505064547 | 55 | 0.0 | 0.0 | 0.00 | 0.00 | 0.00 | 65 | 1011.6 | |
| 20260505063600 | 55 | 0.0 | 0.0 | 0.00 | 0.00 | 0.00 | 64 | 1011.5 | |
| 20260505062544 | 55 | 0.0 | 0.0 | 0.00 | 0.00 | 0.00 | 64 | 1011.4 | |
| 20260505061517 | 55 | 0.0 | 0.0 | 0.00 | 0.00 | 0.00 | 64 | 1011.5 | |
| 20260505060542 | 56 | 0.0 | 0.0 | 0.00 | 0.00 | 0.00 | 63 | 1011.6 | |
| 20260505055540 | 56 | 184 | 0.0 | 0.0 | 0.00 | 0.00 | 0.00 | 63 | 1011.5 |
| 20260505054516 | 56 | 207 | 0.0 | 1.7 | 0.00 | 0.00 | 0.00 | 63 | 1011.4 |
| 20260505053540 | 56 | 0.0 | 0.0 | 0.00 | 0.00 | 0.00 | 62 | 1011.5 | |
| 20260505052526 | 56 | 0.0 | 0.0 | 0.00 | 0.00 | 0.00 | 62 | 1011.5 | |
| 20260505051519 | 56 | 0.0 | 0.9 | 0.00 | 0.00 | 0.00 | 62 | 1011.6 | |
| 20260505050526 | 56 | 0.0 | 0.0 | 0.00 | 0.00 | 0.00 | 62 | 1011.5 | |
| 20260505041517 | 58 | 0.0 | 0.0 | 0.00 | 0.00 | 0.00 | 60 | 1011.5 | |
| 20260505040526 | 58 | 0.0 | 0.0 | 0.00 | 0.00 | 0.00 | 59 | 1011.3 | |
| 20260505035517 | 58 | 0.0 | 0.0 | 0.00 | 0.00 | 0.00 | 59 | 1011.4 | |
| 20260505034522 | 58 | 0.0 | 0.0 | 0.00 | 0.00 | 0.00 | 58 | 1011.4 | |
| 20260505033517 | 59 | 0.0 | 0.0 | 0.00 | 0.00 | 0.00 | 58 | 1011.2 | |
| 20260505032520 | 59 | 0.0 | 0.0 | 0.00 | 0.00 | 0.00 | 57 | 1011.2 | |
| 20260505031519 | 59 | 0.0 | 0.0 | 0.00 | 0.00 | 0.00 | 56 | 1011.3 | |
| 20260505030549 | 59 | 0.0 | 0.0 | 0.00 | 0.00 | 0.00 | 55 | 1011.4 | |
| 20260505025519 | 59 | 0.0 | 0.0 | 0.00 | 0.00 | 0.00 | 54 | 1011.3 | |
| 20260505024524 | 60 | 239 | 0.0 | 0.0 | 0.00 | 0.00 | 0.00 | 54 | 1011.3 |
| 20260505023517 | 60 | 0.0 | 0.0 | 0.00 | 0.00 | 0.00 | 53 | 1011.3 | |
| 20260505022522 | 60 | 0.0 | 0.9 | 0.00 | 0.00 | 0.00 | 53 | 1011.3 | |
| 20260505021519 | 60 | 198 | 0.0 | 0.9 | 0.00 | 0.00 | 0.00 | 53 | 1011.4 |
| 20260505020518 | 60 | 220 | 0.9 | 2.6 | 0.00 | 0.00 | 0.00 | 52 | 1011.3 |
| 20260505015519 | 60 | 194 | 0.0 | 2.6 | 0.00 | 0.00 | 0.00 | 50 | 1011.0 |
| 20260505014528 | 61 | 0.0 | 0.0 | 0.00 | 0.00 | 0.00 | 49 | 1011.2 | |
| 20260505013519 | 61 | 0.0 | 0.0 | 0.00 | 0.00 | 0.00 | 48 | 1011.1 | |
| 20260505012518 | 62 | 225 | 0.0 | 0.0 | 0.00 | 0.00 | 0.00 | 47 | 1011.0 |
| 20260505011519 | 62 | 239 | 0.0 | 0.9 | 0.00 | 0.00 | 0.00 | 47 | 1010.7 |
| 20260505010558 | 62 | 245 | 0.0 | 0.9 | 0.00 | 0.00 | 0.00 | 46 | 1010.6 |
| 20260505005519 | 63 | 237 | 0.0 | 0.9 | 0.00 | 0.00 | 0.00 | 44 | 1010.5 |
| 20260505004538 | 63 | 205 | 0.0 | 1.7 | 0.00 | 0.00 | 0.00 | 43 | 1010.5 |
| 20260505003521 | 64 | 207 | 0.0 | 0.0 | 0.00 | 0.00 | 0.00 | 42 | 1010.6 |
| 20260505002528 | 64 | 241 | 0.0 | 1.7 | 0.00 | 0.00 | 0.00 | 42 | 1010.4 |
| 20260505001516 | 65 | 0.0 | 0.0 | 0.00 | 0.00 | 0.00 | 40 | 1010.6 | |
| 20260505000522 | 65 | 0.0 | 0.9 | 0.00 | 0.00 | 0.00 | 40 | 1010.4 | |
| 20260504235521 | 66 | 212 | 0.0 | 0.9 | 0.00 | 0.00 | 0.00 | 39 | 1010.6 |
| 20260504234520 | 67 | 187 | 0.0 | 1.7 | 0.00 | 0.00 | 0.00 | 37 | 1010.5 |
| 20260504233523 | 68 | 183 | 0.9 | 2.6 | 0.00 | 0.00 | 0.00 | 37 | 1010.4 |
| 20260504232526 | 68 | 136 | 0.9 | 2.6 | 0.00 | 0.00 | 0.00 | 35 | 1010.4 |
| 20260504231517 | 69 | 172 | 0.9 | 4.3 | 0.00 | 0.00 | 0.00 | 33 | 1010.5 |
| 20260504230526 | 70 | 157 | 1.7 | 5.2 | 0.00 | 0.00 | 0.00 | 33 | 1010.5 |
| 20260504225517 | 70 | 144 | 0.9 | 1.7 | 0.00 | 0.00 | 0.00 | 31 | 1010.3 |
| 20260504224524 | 71 | 170 | 1.7 | 4.3 | 0.00 | 0.00 | 0.00 | 31 | 1010.4 |
| 20260504223521 | 72 | 163 | 1.7 | 5.2 | 0.00 | 0.00 | 0.00 | 30 | 1010.6 |
| 20260504222518 | 73 | 201 | 1.7 | 7.0 | 0.00 | 0.00 | 0.00 | 29 | 1010.4 |
| 20260504221521 | 75 | 178 | 1.7 | 6.1 | 0.00 | 0.00 | 0.00 | 25 | 1010.5 |
| 20260504220528 | 79 | 183 | 1.7 | 5.2 | 0.00 | 0.00 | 0.00 | 21 | 1010.4 |
| 20260504215520 | 85 | 198 | 1.7 | 2.6 | 0.00 | 0.00 | 0.00 | 20 | 1010.5 |
| 20260504214526 | 88 | 205 | 0.9 | 3.5 | 0.00 | 0.00 | 0.00 | 21 | 1010.5 |
| 20260504213521 | 89 | 190 | 2.6 | 3.5 | 0.00 | 0.00 | 0.00 | 20 | 1010.6 |
| 20260504212520 | 92 | 189 | 1.7 | 7.0 | 0.00 | 0.00 | 0.00 | 20 | 1010.6 |
| 20260504211521 | 94 | 177 | 1.7 | 4.3 | 0.00 | 0.00 | 0.00 | 20 | 1010.5 |
| 20260504210518 | 94 | 179 | 1.7 | 7.8 | 0.00 | 0.00 | 0.00 | 20 | 1010.5 |
| 20260504205521 | 94 | 213 | 1.7 | 2.6 | 0.00 | 0.00 | 0.00 | 20 | 1010.7 |
| 20260504204528 | 94 | 97 | 1.7 | 7.8 | 0.00 | 0.00 | 0.00 | 20 | 1010.6 |
| 20260504203517 | 94 | 158 | 1.7 | 7.0 | 0.00 | 0.00 | 0.00 | 20 | 1010.6 |
| 20260504202522 | 94 | 215 | 1.7 | 3.5 | 0.00 | 0.00 | 0.00 | 20 | 1010.8 |
| 20260504201521 | 95 | 136 | 0.9 | 3.5 | 0.00 | 0.00 | 0.00 | 20 | 1010.9 |
| 20260504200540 | 94 | 243 | 0.9 | 2.6 | 0.00 | 0.00 | 0.00 | 20 | 1010.9 |
| 20260504195521 | 92 | 144 | 1.7 | 3.5 | 0.00 | 0.00 | 0.00 | 20 | 1011.1 |
| 20260504194516 | 90 | 216 | 1.7 | 3.5 | 0.00 | 0.00 | 0.00 | 20 | 1011.2 |
| 20260504193518 | 88 | 144 | 1.7 | 4.3 | 0.00 | 0.00 | 0.00 | 20 | 1011.4 |
| 20260504192525 | 87 | 126 | 1.7 | 3.5 | 0.00 | 0.00 | 0.00 | 20 | 1011.6 |
| 20260504191516 | 86 | 259 | 1.7 | 2.6 | 0.00 | 0.00 | 0.00 | 20 | 1011.7 |
| 20260504190523 | 88 | 117 | 0.9 | 7.0 | 0.00 | 0.00 | 0.00 | 21 | 1011.8 |
| 20260504185516 | 93 | 220 | 1.7 | 4.3 | 0.00 | 0.00 | 0.00 | 17 | 1012.1 |
| 20260504184516 | 97 | 224 | 1.7 | 4.3 | 0.00 | 0.00 | 0.00 | 17 | 1012.3 |
| 20260504183540 | 97 | 191 | 1.7 | 4.3 | 0.00 | 0.00 | 0.00 | 17 | 1012.4 |
| 20260504182527 | 96 | 179 | 1.7 | 3.5 | 0.00 | 0.00 | 0.00 | 18 | 1012.4 |
| 20260504181520 | 96 | 173 | 1.7 | 4.3 | 0.00 | 0.00 | 0.00 | 19 | 1012.6 |
| 20260504180518 | 96 | 127 | 1.7 | 1.7 | 0.00 | 0.00 | 0.00 | 20 | 1012.6 |
| 20260504175520 | 95 | 182 | 1.7 | 6.1 | 0.00 | 0.00 | 0.00 | 19 | 1012.8 |
| 20260504174520 | 96 | 194 | 0.9 | 5.2 | 0.00 | 0.00 | 0.00 | 20 | 1012.9 |
| 20260504173520 | 96 | 229 | 0.9 | 3.5 | 0.00 | 0.00 | 0.00 | 20 | 1013.1 |
| 20260504172518 | 94 | 138 | 0.9 | 2.6 | 0.00 | 0.00 | 0.00 | 22 | 1013.2 |
| 20260504171520 | 92 | 156 | 0.9 | 4.3 | 0.00 | 0.00 | 0.00 | 21 | 1013.2 |
| 20260504170549 | 91 | 117 | 0.9 | 3.5 | 0.00 | 0.00 | 0.00 | 22 | 1013.2 |
| 20260504150517 | 84 | 153 | 0.9 | 2.6 | 0.00 | 0.00 | 0.00 | 31 | 1014.6 |
| 20260504140539 | 69 | 189 | 0.9 | 1.7 | 0.00 | 0.00 | 0.00 | 43 | 1014.9 |
| 20260504130541 | 56 | 168 | 1.7 | 2.6 | 0.00 | 0.00 | 0.00 | 50 | 1015.2 |
| 20260504110527 | 51 | 178 | 0.0 | 0.9 | 0.00 | 0.00 | 0.00 | 52 | 1015.8 |